Time;durP1;ratioP1;P1;durP2;ratioP2;P2;SDS_P1;SDS_P2;PMS_P1;PMS_P2;Temp;Humidity;BMP_temperature;BMP_pressure;BME280_temperature;BME280_humidity;BME280_pressure;Samples;Min_cycle;Max_cycle;Signal;HPM_P1;HPM_P2
2020/12/24 00:01:22;;;;;;;5.45;2.42;;;10.70;99.90;;;;;;5037663;28;20395;-45
2020/12/24 00:03:48;;;;;;;3.08;2.28;;;10.70;99.90;;;;;;5038531;28;20536;-43
2020/12/24 00:06:14;;;;;;;3.22;2.70;;;10.60;99.90;;;;;;5037181;28;20029;-45
2020/12/24 00:08:40;;;;;;;7.47;2.60;;;10.60;99.90;;;;;;5037565;28;20116;-44
2020/12/24 00:11:08;;;;;;;4.22;2.42;;;10.60;99.90;;;;;;5034399;28;20108;-44
2020/12/24 00:13:35;;;;;;;2.80;2.50;;;10.60;99.90;;;;;;5035354;28;20049;-43
2020/12/24 00:16:02;;;;;;;6.00;3.20;;;10.60;99.90;;;;;;5036136;28;20029;-46
2020/12/24 00:18:27;;;;;;;6.85;3.20;;;10.60;99.90;;;;;;5036169;28;20510;-45
2020/12/24 00:20:53;;;;;;;6.82;2.88;;;10.60;99.90;;;;;;5027849;28;20025;-46
2020/12/24 00:23:19;;;;;;;2.97;2.15;;;10.60;99.90;;;;;;5028769;28;20552;-44
2020/12/24 00:25:45;;;;;;;3.97;2.42;;;10.60;99.90;;;;;;5027504;28;20037;-44
2020/12/24 00:28:10;;;;;;;5.55;2.75;;;10.50;99.90;;;;;;5028633;28;20029;-45
2020/12/24 00:30:40;;;;;;;3.85;2.40;;;10.50;99.90;;;;;;5028356;28;20390;-45
2020/12/24 00:33:08;;;;;;;5.60;2.40;;;10.50;99.90;;;;;;5027234;28;20031;-45
2020/12/24 00:35:34;;;;;;;3.75;2.38;;;10.50;99.90;;;;;;5027755;28;20260;-44
2020/12/24 00:37:59;;;;;;;2.90;2.35;;;10.60;99.90;;;;;;5028468;28;20545;-44
2020/12/24 00:40:27;;;;;;;3.58;2.28;;;10.60;99.90;;;;;;5030655;28;20033;-44
2020/12/24 00:42:53;;;;;;;3.42;2.10;;;10.60;99.90;;;;;;5032636;28;20425;-44
2020/12/24 00:45:18;;;;;;;4.07;2.03;;;10.60;99.90;;;;;;5031473;28;20026;-44
2020/12/24 00:47:44;;;;;;;3.85;2.10;;;10.60;99.90;;;;;;5031905;28;20045;-44
2020/12/24 00:50:10;;;;;;;5.85;2.25;;;10.60;99.90;;;;;;5032020;28;20387;-45
2020/12/24 00:52:35;;;;;;;3.53;2.10;;;10.60;99.90;;;;;;5031928;28;20029;-46
2020/12/24 00:55:01;;;;;;;4.95;2.15;;;10.60;99.90;;;;;;5031289;28;20048;-43
2020/12/24 00:57:26;;;;;;;2.83;2.08;;;10.60;99.90;;;;;;5030263;28;20528;-43
2020/12/24 00:59:52;;;;;;;4.32;2.42;;;10.60;99.90;;;;;;5031823;28;20029;-44
2020/12/24 01:02:17;;;;;;;3.08;2.00;;;10.60;99.90;;;;;;5030677;28;20144;-44
2020/12/24 01:04:43;;;;;;;4.55;2.60;;;10.60;99.90;;;;;;5031643;28;20451;-44
2020/12/24 01:07:09;;;;;;;8.35;2.20;;;10.70;99.90;;;;;;5031838;28;20097;-46
2020/12/24 01:09:34;;;;;;;4.35;2.30;;;10.70;99.90;;;;;;5030251;28;20037;-46
2020/12/24 01:12:00;;;;;;;4.07;2.45;;;10.70;99.90;;;;;;5031686;28;20100;-46
2020/12/24 01:14:26;;;;;;;4.30;2.08;;;10.70;99.90;;;;;;5030122;28;20471;-44
2020/12/24 01:16:51;;;;;;;5.93;2.67;;;10.70;99.90;;;;;;5031468;28;20068;-46
2020/12/24 01:19:17;;;;;;;3.88;2.05;;;10.70;99.90;;;;;;5031527;28;20057;-45
2020/12/24 01:21:46;;;;;;;6.90;2.45;;;10.60;99.90;;;;;;5031477;28;20112;-43
2020/12/24 01:24:12;;;;;;;6.70;2.42;;;10.70;99.90;;;;;;5031903;28;20474;-46
2020/12/24 01:26:44;;;;;;;3.85;2.33;;;10.70;99.90;;;;;;5029291;28;20025;-44
2020/12/24 01:29:09;;;;;;;8.48;2.50;;;10.70;99.90;;;;;;5031558;28;20029;-45
2020/12/24 01:31:35;;;;;;;3.78;1.70;;;10.70;99.90;;;;;;5029959;28;20044;-44
2020/12/24 01:34:01;;;;;;;2.65;1.88;;;10.70;99.90;;;;;;5029869;28;20083;-44
2020/12/24 01:36:26;;;;;;;5.65;1.90;;;10.70;99.90;;;;;;5029158;28;20025;-45
2020/12/24 01:38:52;;;;;;;6.30;2.38;;;10.60;99.90;;;;;;5030891;28;20112;-44
2020/12/24 01:41:18;;;;;;;5.88;2.13;;;10.60;99.90;;;;;;5030930;28;20027;-45
2020/12/24 01:43:43;;;;;;;5.35;2.20;;;10.50;99.90;;;;;;5031167;28;20479;-45
2020/12/24 01:46:09;;;;;;;4.22;1.95;;;10.50;99.90;;;;;;5030351;28;20578;-47
2020/12/24 01:48:34;;;;;;;4.60;1.80;;;10.50;99.90;;;;;;5030887;28;20037;-46
2020/12/24 01:51:00;;;;;;;3.90;1.67;;;10.50;99.90;;;;;;5030123;28;20395;-47
2020/12/24 01:53:26;;;;;;;3.33;1.65;;;10.50;99.90;;;;;;5030813;28;20395;-45
2020/12/24 01:55:54;;;;;;;6.47;1.67;;;10.50;99.90;;;;;;5030076;28;20029;-44
2020/12/24 01:58:20;;;;;;;5.43;1.50;;;10.50;99.90;;;;;;5029405;28;20032;-48
2020/12/24 02:00:46;;;;;;;3.72;1.55;;;10.50;99.90;;;;;;5030768;28;20025;-48
2020/12/24 02:03:13;;;;;;;4.35;1.40;;;10.50;99.90;;;;;;5030757;28;20083;-50
2020/12/24 02:05:38;;;;;;;2.47;1.70;;;10.40;99.90;;;;;;5029923;28;20471;-50
2020/12/24 02:08:04;;;;;;;4.30;1.90;;;10.50;99.90;;;;;;5030666;28;20026;-52
2020/12/24 02:10:29;;;;;;;3.30;1.90;;;10.40;99.90;;;;;;5030322;28;20449;-49
2020/12/24 02:12:55;;;;;;;10.82;1.65;;;10.40;99.90;;;;;;5030750;28;20033;-52
2020/12/24 02:15:21;;;;;;;2.22;1.40;;;10.40;99.90;;;;;;5030474;28;20383;-53
2020/12/24 02:17:46;;;;;;;2.58;1.58;;;10.30;99.90;;;;;;5029380;28;20029;-48
2020/12/24 02:20:12;;;;;;;2.45;1.48;;;10.30;99.90;;;;;;5030382;28;20556;-48
2020/12/24 02:22:38;;;;;;;3.65;1.60;;;10.30;99.90;;;;;;5030320;28;20068;-48
2020/12/24 02:25:03;;;;;;;6.28;1.85;;;10.20;99.90;;;;;;5029842;28;20264;-49
2020/12/24 02:27:29;;;;;;;3.40;1.92;;;10.20;99.90;;;;;;5030087;28;20027;-47
2020/12/24 02:29:54;;;;;;;6.20;1.70;;;10.10;99.90;;;;;;5030295;28;20483;-50
2020/12/24 02:32:20;;;;;;;5.75;2.10;;;10.10;99.90;;;;;;5030223;28;20040;-49
2020/12/24 02:34:45;;;;;;;9.65;2.13;;;10.10;99.90;;;;;;5029490;28;20025;-52
2020/12/24 02:37:14;;;;;;;5.43;1.70;;;10.10;99.90;;;;;;5030441;28;20060;-50
2020/12/24 02:39:39;;;;;;;4.80;1.70;;;10.10;99.90;;;;;;5030187;28;20040;-51
2020/12/24 02:42:05;;;;;;;6.38;1.73;;;10.10;99.90;;;;;;5030072;28;20017;-51
2020/12/24 02:44:31;;;;;;;8.27;1.75;;;10.00;99.90;;;;;;5028111;28;20057;-49
2020/12/24 02:46:56;;;;;;;6.07;1.80;;;10.00;99.90;;;;;;5030007;28;20548;-49
2020/12/24 02:49:22;;;;;;;6.78;1.90;;;9.90;99.90;;;;;;5029908;28;20049;-49
2020/12/24 02:51:47;;;;;;;9.38;2.33;;;9.90;99.90;;;;;;5028386;28;20041;-50
2020/12/24 02:54:13;;;;;;;10.27;3.15;;;9.90;99.90;;;;;;5029858;28;20056;-50
2020/12/24 02:56:38;;;;;;;5.90;2.45;;;9.80;99.90;;;;;;5027550;28;20275;-51
2020/12/24 02:59:04;;;;;;;6.47;3.13;;;9.80;99.90;;;;;;5029577;28;20668;-50
2020/12/24 03:01:31;;;;;;;3.85;2.47;;;9.80;99.90;;;;;;5029601;28;20040;-50
2020/12/24 03:03:56;;;;;;;9.82;2.78;;;9.80;99.90;;;;;;5029459;28;20029;-50
2020/12/24 03:06:22;;;;;;;7.28;3.03;;;9.80;99.90;;;;;;5029092;28;20044;-53
2020/12/24 03:08:48;;;;;;;5.68;2.95;;;9.70;99.90;;;;;;5029652;28;20037;-48
2020/12/24 03:11:14;;;;;;;11.80;3.58;;;9.70;99.90;;;;;;5027970;28;20017;-52
2020/12/24 03:13:40;;;;;;;7.32;3.38;;;9.80;99.90;;;;;;5029059;28;20079;-49
2020/12/24 03:16:05;;;;;;;8.40;3.40;;;9.70;99.90;;;;;;5028591;28;20096;-50
2020/12/24 03:18:31;;;;;;;8.23;3.83;;;9.70;99.90;;;;;;5029248;28;20033;-49
2020/12/24 03:20:56;;;;;;;10.02;3.90;;;9.60;99.90;;;;;;5029444;28;20072;-50
2020/12/24 03:23:22;;;;;;;12.27;3.80;;;9.60;99.90;;;;;;5029240;28;20041;-49
2020/12/24 03:25:47;;;;;;;7.90;3.28;;;9.60;99.90;;;;;;5027036;28;20021;-51
2020/12/24 03:28:13;;;;;;;16.95;4.80;;;9.60;99.90;;;;;;5029373;28;20067;-52
2020/12/24 03:30:38;;;;;;;7.72;2.60;;;9.70;99.90;;;;;;5029276;28;20116;-51
2020/12/24 03:33:04;;;;;;;12.60;3.55;;;9.70;99.90;;;;;;5029443;28;20029;-49
2020/12/24 03:35:30;;;;;;;8.15;2.40;;;9.70;99.90;;;;;;5028345;28;20029;-52
2020/12/24 03:37:55;;;;;;;9.40;2.80;;;9.60;99.90;;;;;;5027584;28;20061;-50
2020/12/24 03:40:21;;;;;;;7.60;2.40;;;9.70;99.90;;;;;;5029221;28;20199;-52
2020/12/24 03:42:46;;;;;;;7.45;2.85;;;9.60;99.90;;;;;;5029126;28;20045;-49
2020/12/24 03:45:12;;;;;;;12.40;3.75;;;9.50;99.90;;;;;;5028321;28;20391;-50
2020/12/24 03:47:39;;;;;;;9.85;2.95;;;9.50;99.90;;;;;;5028710;28;20025;-48
2020/12/24 03:50:05;;;;;;;8.25;3.47;;;9.50;99.90;;;;;;5029454;28;20465;-51
2020/12/24 03:52:31;;;;;;;10.27;3.72;;;9.60;99.90;;;;;;5028963;28;20018;-52
2020/12/24 03:54:57;;;;;;;8.75;3.70;;;9.60;99.90;;;;;;5028385;28;20149;-48
2020/12/24 03:57:22;;;;;;;6.15;2.95;;;9.60;99.90;;;;;;5027297;28;20029;-52
2020/12/24 03:59:48;;;;;;;9.70;3.65;;;9.60;99.90;;;;;;5027208;28;20092;-48
2020/12/24 04:02:13;;;;;;;6.72;3.72;;;9.60;99.90;;;;;;5028601;28;20344;-50
2020/12/24 04:04:39;;;;;;;7.10;3.03;;;9.60;99.90;;;;;;5028163;28;20093;-49
2020/12/24 04:07:04;;;;;;;11.18;3.47;;;9.60;99.90;;;;;;5028330;28;20128;-50
2020/12/24 04:09:30;;;;;;;13.27;3.65;;;9.50;99.90;;;;;;5038663;28;20551;-50
2020/12/24 04:11:55;;;;;;;11.05;3.70;;;9.50;99.90;;;;;;5038456;28;20024;-50
2020/12/24 04:14:21;;;;;;;16.55;3.72;;;9.60;99.90;;;;;;5033089;28;20033;-53
2020/12/24 04:16:47;;;;;;;11.00;3.88;;;9.50;99.90;;;;;;5046181;28;20037;-53
2020/12/24 04:19:13;;;;;;;12.48;4.05;;;9.50;99.90;;;;;;5041770;28;20387;-49
2020/12/24 04:21:39;;;;;;;8.27;3.80;;;9.40;99.90;;;;;;5032534;28;20029;-52
2020/12/24 04:24:05;;;;;;;13.25;4.43;;;9.50;99.90;;;;;;5031264;28;20161;-47
2020/12/24 04:26:30;;;;;;;10.05;3.30;;;9.50;99.90;;;;;;5039925;28;20029;-49
2020/12/24 04:28:55;;;;;;;6.82;3.42;;;9.40;99.90;;;;;;5040030;28;20028;-48
2020/12/24 04:31:21;;;;;;;8.48;3.20;;;9.40;99.90;;;;;;5032419;28;20039;-49
2020/12/24 04:33:47;;;;;;;8.88;3.33;;;9.30;99.90;;;;;;5038589;28;20099;-49
2020/12/24 04:36:15;;;;;;;12.85;3.03;;;9.40;99.90;;;;;;5045964;28;20037;-52
2020/12/24 04:38:42;;;;;;;8.30;3.47;;;9.40;99.90;;;;;;5036891;28;20108;-52
2020/12/24 04:41:09;;;;;;;16.83;3.95;;;9.40;99.90;;;;;;5030830;28;20108;-48
2020/12/24 04:43:36;;;;;;;11.63;2.88;;;9.40;99.90;;;;;;5032514;28;20030;-52
2020/12/24 04:46:05;;;;;;;9.38;3.13;;;9.40;99.90;;;;;;5014078;28;20170;-51
2020/12/24 04:48:32;;;;;;;9.55;3.28;;;9.40;99.90;;;;;;5014568;28;20022;-49
2020/12/24 04:50:58;;;;;;;7.40;3.20;;;9.50;99.90;;;;;;5032058;28;20063;-50
2020/12/24 04:53:26;;;;;;;7.15;3.00;;;9.50;99.90;;;;;;5032152;28;20026;-49
2020/12/24 04:55:53;;;;;;;9.77;2.60;;;9.40;99.90;;;;;;5031799;28;20261;-49
2020/12/24 04:58:20;;;;;;;13.07;2.83;;;9.30;99.90;;;;;;5031249;28;20084;-48
2020/12/24 05:00:47;;;;;;;16.42;3.50;;;9.30;99.90;;;;;;5031709;28;20026;-51
2020/12/24 05:03:13;;;;;;;8.73;3.38;;;9.30;99.90;;;;;;5032194;28;20014;-51
2020/12/24 05:05:39;;;;;;;12.90;3.15;;;9.20;99.90;;;;;;5031374;28;20025;-50
2020/12/24 05:08:07;;;;;;;12.50;3.00;;;9.20;99.90;;;;;;5030306;28;20044;-50
2020/12/24 05:10:35;;;;;;;13.93;4.10;;;9.20;99.90;;;;;;5030439;28;20094;-48
2020/12/24 05:13:18;;;;;;;19.25;3.10;;;9.20;99.90;;;;;;5030799;28;20029;-49
2020/12/24 05:15:44;;;;;;;12.88;2.72;;;9.30;99.90;;;;;;5030861;28;20029;-52
2020/12/24 05:18:23;;;;;;;9.90;3.05;;;9.30;99.90;;;;;;5036370;28;20033;-50
2020/12/24 05:20:50;;;;;;;7.95;2.28;;;9.30;99.90;;;;;;5041620;28;20387;-53
2020/12/24 05:23:18;;;;;;;9.68;2.53;;;9.10;99.90;;;;;;5034738;28;20017;-49
2020/12/24 05:25:45;;;;;;;8.52;2.55;;;8.90;99.90;;;;;;5030104;28;20014;-50
2020/12/24 05:28:25;;;;;;;3.95;2.50;;;8.80;99.90;;;;;;5031126;28;20034;-51
2020/12/24 05:30:52;;;;;;;4.65;2.05;;;8.70;99.90;;;;;;5031344;28;20025;-50
2020/12/24 05:33:28;;;;;;;8.85;3.00;;;8.60;99.90;;;;;;5031481;28;20026;-52
2020/12/24 05:36:12;;;;;;;4.95;3.20;;;8.50;99.90;;;;;;5031173;28;20030;-53
2020/12/24 05:38:38;;;;;;;9.88;2.63;;;8.50;99.90;;;;;;5031179;28;20467;-51
2020/12/24 05:41:29;;;;;;;8.10;3.40;;;8.50;99.90;;;;;;5030376;28;20025;-47
2020/12/24 05:44:01;;;;;;;11.50;3.83;;;8.40;99.90;;;;;;5031079;28;20052;-48
2020/12/24 05:46:37;;;;;;;9.52;3.70;;;8.40;99.90;;;;;;5030463;28;20475;-52
2020/12/24 05:49:09;;;;;;;12.48;3.88;;;8.40;99.90;;;;;;5031428;28;20387;-50
2020/12/24 05:51:34;;;;;;;7.25;2.92;;;8.40;99.90;;;;;;5031263;28;20034;-50
2020/12/24 05:54:00;;;;;;;14.32;3.95;;;8.30;99.90;;;;;;5030901;28;20044;-51
2020/12/24 05:56:26;;;;;;;12.88;3.42;;;8.40;99.90;;;;;;5028993;28;20028;-52
2020/12/24 05:58:53;;;;;;;14.38;3.92;;;8.30;99.90;;;;;;5030958;28;20025;-50
2020/12/24 06:01:20;;;;;;;9.13;2.70;;;8.30;99.90;;;;;;5031104;28;20033;-51
2020/12/24 06:04:09;;;;;;;11.27;2.90;;;8.40;99.90;;;;;;5030836;28;20083;-49
2020/12/24 06:06:43;;;;;;;7.78;2.50;;;8.40;99.90;;;;;;5029837;28;20120;-50
2020/12/24 06:09:15;;;;;;;10.27;2.70;;;8.50;99.90;;;;;;5031110;28;20029;-51
2020/12/24 06:11:53;;;;;;;9.43;3.13;;;8.50;99.90;;;;;;5030448;28;20372;-52
2020/12/24 06:14:28;;;;;;;13.40;2.70;;;8.50;99.90;;;;;;5030761;28;20104;-50
2020/12/24 06:17:07;;;;;;;14.65;3.10;;;8.60;99.90;;;;;;5030820;28;20025;-52
2020/12/24 06:19:38;;;;;;;8.68;2.80;;;8.50;99.90;;;;;;5030722;28;20447;-49
2020/12/24 06:22:05;;;;;;;10.35;2.95;;;8.50;99.90;;;;;;5029285;28;20395;-50
2020/12/24 06:24:32;;;;;;;8.68;2.80;;;8.40;99.90;;;;;;5030042;28;20070;-50
2020/12/24 06:27:03;;;;;;;8.35;3.15;;;8.40;99.90;;;;;;5033127;28;20455;-48
2020/12/24 06:29:30;;;;;;;10.50;3.15;;;8.40;99.90;;;;;;5032538;28;20035;-50
2020/12/24 06:31:57;;;;;;;12.15;2.78;;;8.40;99.90;;;;;;5048909;28;20036;-51
2020/12/24 06:34:30;;;;;;;13.75;2.92;;;8.30;99.90;;;;;;5048353;28;20128;-49
2020/12/24 06:37:10;;;;;;;8.93;2.75;;;8.30;99.90;;;;;;5049690;28;20028;-49
2020/12/24 06:39:47;;;;;;;13.23;3.27;;;8.30;99.90;;;;;;5047708;28;20057;-49
2020/12/24 06:42:37;;;;;;;8.00;2.72;;;8.30;99.90;;;;;;5029911;28;20031;-49
2020/12/24 06:45:05;;;;;;;8.23;2.70;;;8.20;99.90;;;;;;5029549;28;20033;-52
2020/12/24 06:47:31;;;;;;;10.55;3.10;;;8.10;99.90;;;;;;5030025;28;20263;-49
2020/12/24 06:49:57;;;;;;;12.23;3.60;;;8.10;99.90;;;;;;5030381;28;20101;-47
2020/12/24 06:52:30;;;;;;;6.95;2.50;;;8.10;99.90;;;;;;5030238;28;20036;-48
2020/12/24 06:55:15;;;;;;;10.40;2.90;;;8.10;99.90;;;;;;5029275;28;20025;-49
2020/12/24 06:57:44;;;;;;;12.25;3.53;;;8.00;99.90;;;;;;5030202;28;20390;-49
2020/12/24 07:00:20;;;;;;;14.07;3.53;;;8.00;99.90;;;;;;5028795;28;20502;-48
2020/12/24 07:02:50;;;;;;;9.18;3.67;;;7.90;99.90;;;;;;5029979;28;20040;-51
2020/12/24 07:05:40;;;;;;;12.60;3.88;;;8.00;99.90;;;;;;5029451;28;20506;-50
2020/12/24 07:08:06;;;;;;;10.98;3.20;;;7.90;99.90;;;;;;5028372;28;20116;-48
2020/12/24 07:10:49;;;;;;;7.55;3.53;;;7.90;99.90;;;;;;5029402;28;20483;-50
2020/12/24 07:13:36;;;;;;;11.55;3.67;;;7.90;99.90;;;;;;5028300;28;20026;-53
2020/12/24 07:16:06;;;;;;;5.82;2.50;;;7.80;99.90;;;;;;5028765;28;20481;-51
2020/12/24 07:18:39;;;;;;;5.70;3.30;;;7.80;99.90;;;;;;5029428;28;20029;-53
2020/12/24 07:21:08;;;;;;;7.43;2.97;;;7.80;99.90;;;;;;5029370;28;20037;-52
2020/12/24 07:23:39;;;;;;;14.15;3.05;;;7.70;99.90;;;;;;5029276;28;20091;-47
2020/12/24 07:26:06;;;;;;;7.05;2.80;;;7.70;99.90;;;;;;5027182;28;20164;-49
2020/12/24 07:28:34;;;;;;;5.85;2.30;;;7.70;99.90;;;;;;5029239;28;20018;-54
2020/12/24 07:31:08;;;;;;;3.78;2.78;;;7.60;99.90;;;;;;5029256;28;20112;-52
2020/12/24 07:33:35;;;;;;;3.50;2.05;;;7.50;99.90;;;;;;5029401;28;20030;-50
2020/12/24 07:36:05;;;;;;;4.20;1.80;;;7.30;99.90;;;;;;5028595;28;20455;-50
2020/12/24 07:38:31;;;;;;;5.88;2.13;;;7.20;99.90;;;;;;5029267;28;20359;-52
2020/12/24 07:40:57;;;;;;;5.38;2.25;;;7.10;99.90;;;;;;5028921;28;20025;-49
2020/12/24 07:43:25;;;;;;;4.80;2.17;;;7.10;99.90;;;;;;5029133;28;20378;-49
2020/12/24 07:45:54;;;;;;;3.20;2.20;;;7.00;99.90;;;;;;5028519;28;20518;-49
2020/12/24 07:48:26;;;;;;;2.50;2.17;;;7.00;99.90;;;;;;5029070;28;20423;-50
2020/12/24 07:50:52;;;;;;;2.63;2.00;;;6.90;99.90;;;;;;5028692;28;20537;-51
2020/12/24 07:53:20;;;;;;;3.08;2.17;;;6.80;99.90;;;;;;5028815;28;20030;-53
2020/12/24 07:55:47;;;;;;;3.78;2.60;;;6.80;99.90;;;;;;5026444;28;20032;-50
2020/12/24 07:58:14;;;;;;;3.33;2.70;;;6.70;99.90;;;;;;5028653;28;20044;-53
2020/12/24 08:00:40;;;;;;;4.28;3.25;;;6.70;99.90;;;;;;5028591;28;20172;-51
2020/12/24 08:03:06;;;;;;;5.03;3.30;;;6.60;99.90;;;;;;5028125;28;20033;-52
2020/12/24 08:05:32;;;;;;;7.60;3.53;;;6.60;99.90;;;;;;5027159;28;20376;-52
2020/12/24 08:07:57;;;;;;;3.53;2.58;;;6.50;99.90;;;;;;5028461;28;20021;-49
2020/12/24 08:10:23;;;;;;;3.42;2.42;;;6.40;99.90;;;;;;5027008;28;20108;-51
2020/12/24 08:12:49;;;;;;;1.30;1.10;;;6.30;99.90;;;;;;5028892;28;20032;-52
2020/12/24 08:15:18;;;;;;;0.82;0.80;;;6.20;99.90;;;;;;5028471;28;20402;-52
2020/12/24 08:18:12;;;;;;;1.08;0.98;;;6.10;99.90;;;;;;5028859;28;20464;-51
2020/12/24 08:20:43;;;;;;;0.65;0.65;;;6.10;99.90;;;;;;5028831;28;20556;-52
2020/12/24 08:23:17;;;;;;;0.55;0.52;;;5.90;99.90;;;;;;5029002;28;20056;-52
2020/12/24 08:25:46;;;;;;;0.63;0.60;;;5.80;99.90;;;;;;5026488;28;20017;-49
2020/12/24 08:28:12;;;;;;;0.40;0.40;;;5.70;99.90;;;;;;5028761;28;20026;-52
2020/12/24 08:30:38;;;;;;;0.52;0.50;;;5.60;99.90;;;;;;5028609;28;20467;-53
2020/12/24 08:33:05;;;;;;;0.60;0.60;;;5.50;99.90;;;;;;5028338;28;20122;-49
2020/12/24 08:35:31;;;;;;;0.50;0.50;;;5.40;99.90;;;;;;5028122;28;20036;-52
2020/12/24 08:38:14;;;;;;;1.48;0.30;;;5.40;99.90;;;;;;5036087;28;20025;-50
2020/12/24 08:40:40;;;;;;;0.47;0.47;;;5.20;99.90;;;;;;5035176;28;20260;-52
2020/12/24 08:43:08;;;;;;;0.38;0.38;;;5.10;99.90;;;;;;5039096;28;20128;-49
2020/12/24 08:45:48;;;;;;;0.73;0.50;;;5.10;99.90;;;;;;5047594;28;20014;-49
2020/12/24 08:48:30;;;;;;;0.55;0.55;;;5.00;99.90;;;;;;5043276;28;20037;-51
2020/12/24 08:50:56;;;;;;;0.35;0.35;;;4.90;99.90;;;;;;5027616;28;20455;-53
2020/12/24 08:53:24;;;;;;;0.38;0.38;;;4.80;99.90;;;;;;5030050;28;20032;-53
2020/12/24 08:55:49;;;;;;;1.83;0.50;;;4.80;99.90;;;;;;5045754;28;20128;-52
2020/12/24 08:58:15;;;;;;;0.40;0.40;;;4.70;99.90;;;;;;5047929;28;20048;-51
2020/12/24 09:00:41;;;;;;;0.38;0.38;;;4.60;99.90;;;;;;5048951;28;20096;-52
2020/12/24 09:03:26;;;;;;;0.50;0.50;;;4.60;99.90;;;;;;5051868;28;20037;-50
2020/12/24 09:05:52;;;;;;;0.57;0.57;;;4.50;99.90;;;;;;5049939;28;20329;-50
2020/12/24 09:08:31;;;;;;;1.05;0.70;;;4.50;99.90;;;;;;5051669;28;20036;-49
2020/12/24 09:10:56;;;;;;;0.60;0.60;;;4.50;99.90;;;;;;5037784;28;20038;-49
2020/12/24 09:13:22;;;;;;;0.68;0.60;;;4.40;99.90;;;;;;5031600;28;20040;-45
2020/12/24 09:15:48;;;;;;;0.52;0.52;;;4.40;99.90;;;;;;5030870;28;20080;-44
2020/12/24 09:18:16;;;;;;;0.60;0.60;;;4.40;99.90;;;;;;5031411;28;20044;-44
2020/12/24 09:20:42;;;;;;;0.52;0.50;;;4.40;99.90;;;;;;5029782;28;20025;-45
2020/12/24 09:23:17;;;;;;;0.60;0.60;;;4.50;99.90;;;;;;5031230;28;20479;-45
2020/12/24 09:25:45;;;;;;;0.82;0.60;;;4.40;99.90;;;;;;5028957;28;20033;-45
2020/12/24 09:28:26;;;;;;;0.63;0.50;;;4.50;99.90;;;;;;5031458;28;20109;-45
2020/12/24 09:30:55;;;;;;;0.88;0.65;;;4.50;99.90;;;;;;5031301;28;20022;-45
2020/12/24 09:33:20;;;;;;;0.77;0.77;;;4.50;99.90;;;;;;5031384;28;20044;-44
2020/12/24 09:35:46;;;;;;;0.80;0.80;;;4.40;99.90;;;;;;5030573;28;20104;-45
2020/12/24 09:38:12;;;;;;;1.40;1.00;;;4.40;99.90;;;;;;5029916;28;20025;-46
2020/12/24 09:40:38;;;;;;;0.85;0.82;;;4.40;99.90;;;;;;5030576;28;20029;-47
2020/12/24 09:43:05;;;;;;;0.73;0.73;;;4.40;99.90;;;;;;5031401;28;20029;-47
2020/12/24 09:45:30;;;;;;;1.30;0.80;;;4.30;99.90;;;;;;5029284;28;20017;-44
2020/12/24 09:47:57;;;;;;;0.70;0.65;;;4.30;99.90;;;;;;5029757;28;20029;-46
2020/12/24 09:50:23;;;;;;;0.63;0.63;;;4.30;99.90;;;;;;5041799;28;20025;-45
2020/12/24 09:52:49;;;;;;;0.75;0.70;;;4.20;99.90;;;;;;5050806;28;20019;-47
2020/12/24 09:55:15;;;;;;;0.70;0.70;;;4.20;99.90;;;;;;5048955;28;20025;-45
2020/12/24 09:57:40;;;;;;;0.93;0.82;;;4.10;99.90;;;;;;5048936;28;20082;-44
2020/12/24 10:00:09;;;;;;;1.02;0.93;;;4.10;99.90;;;;;;5050056;28;20037;-47
2020/12/24 10:02:35;;;;;;;1.10;1.00;;;4.00;99.90;;;;;;5050116;28;20410;-50
2020/12/24 10:05:03;;;;;;;0.80;0.80;;;4.00;99.90;;;;;;5049268;28;20025;-45
2020/12/24 10:07:29;;;;;;;2.55;1.02;;;4.00;99.90;;;;;;5050683;28;20546;-44
2020/12/24 10:09:55;;;;;;;0.90;0.90;;;4.00;99.90;;;;;;5050909;28;20047;-46
2020/12/24 10:12:21;;;;;;;1.23;1.13;;;4.00;99.90;;;;;;5050259;28;20040;-44
2020/12/24 10:14:47;;;;;;;1.00;1.00;;;4.00;99.90;;;;;;5050423;28;20025;-45
2020/12/24 10:17:15;;;;;;;3.25;1.70;;;4.00;99.90;;;;;;5050468;28;20099;-43
2020/12/24 10:19:43;;;;;;;1.90;1.70;;;3.90;99.90;;;;;;5049982;28;20112;-44
2020/12/24 10:22:09;;;;;;;1.40;1.30;;;4.00;99.90;;;;;;5048939;28;20027;-44
2020/12/24 10:24:35;;;;;;;1.65;1.52;;;3.90;99.90;;;;;;5050090;28;20024;-45
2020/12/24 10:27:04;;;;;;;1.48;1.38;;;4.00;99.90;;;;;;5048753;28;20390;-45
2020/12/24 10:29:30;;;;;;;1.58;1.40;;;3.90;99.90;;;;;;5050221;28;20107;-45
2020/12/24 10:31:59;;;;;;;1.50;1.40;;;3.90;99.90;;;;;;5048775;28;20039;-42
2020/12/24 10:34:24;;;;;;;1.40;1.30;;;3.90;99.90;;;;;;5049975;28;20053;-45
2020/12/24 10:36:50;;;;;;;1.90;1.25;;;3.90;99.90;;;;;;5050004;28;20505;-44
2020/12/24 10:39:16;;;;;;;1.40;1.30;;;3.80;99.90;;;;;;5049633;28;20124;-47
2020/12/24 10:41:41;;;;;;;2.00;1.80;;;3.80;99.90;;;;;;5048086;28;20021;-45
2020/12/24 10:44:08;;;;;;;1.33;1.23;;;3.80;99.90;;;;;;5049851;28;20021;-45
2020/12/24 10:46:35;;;;;;;1.20;1.10;;;3.80;99.90;;;;;;5047992;28;20103;-45
2020/12/24 10:49:01;;;;;;;1.48;1.38;;;3.90;99.90;;;;;;5049629;28;20100;-45
2020/12/24 10:51:27;;;;;;;1.60;1.48;;;3.90;99.90;;;;;;5039900;28;20040;-44
2020/12/24 10:53:53;;;;;;;1.67;1.20;;;3.90;99.90;;;;;;5049630;28;20037;-44
2020/12/24 10:56:19;;;;;;;1.23;1.10;;;4.00;99.90;;;;;;5048735;28;20032;-44
2020/12/24 10:58:45;;;;;;;1.30;1.20;;;4.00;99.90;;;;;;5049512;28;20127;-44
2020/12/24 11:01:12;;;;;;;1.40;1.30;;;4.00;99.90;;;;;;5049265;28;20031;-45
2020/12/24 11:03:38;;;;;;;1.05;0.95;;;4.00;99.90;;;;;;5049519;28;20024;-44
2020/12/24 11:06:08;;;;;;;1.20;1.10;;;4.00;99.90;;;;;;5049095;28;20021;-46
2020/12/24 11:08:34;;;;;;;1.20;1.10;;;4.00;99.90;;;;;;5049193;28;20086;-45
2020/12/24 11:11:01;;;;;;;1.42;1.27;;;4.00;99.90;;;;;;5049193;28;20577;-49
2020/12/24 11:13:26;;;;;;;1.13;1.02;;;4.00;99.90;;;;;;5028847;28;20483;-46
2020/12/24 11:15:53;;;;;;;1.13;0.90;;;4.10;99.90;;;;;;5011044;28;20059;-45
2020/12/24 11:18:19;;;;;;;1.10;1.00;;;4.00;99.90;;;;;;5027907;28;20100;-44
2020/12/24 11:20:45;;;;;;;1.17;0.93;;;4.00;99.90;;;;;;5029299;28;20387;-46
2020/12/24 11:23:11;;;;;;;0.85;0.80;;;4.00;99.90;;;;;;5028715;28;20030;-43
2020/12/24 11:25:37;;;;;;;1.35;1.20;;;4.00;99.90;;;;;;5028017;28;20029;-45
2020/12/24 11:28:03;;;;;;;1.20;0.95;;;4.00;99.90;;;;;;5035994;28;20052;-44
2020/12/24 11:30:29;;;;;;;1.50;1.30;;;4.00;99.90;;;;;;5048897;28;20288;-45
2020/12/24 11:32:56;;;;;;;1.13;1.00;;;4.00;99.90;;;;;;5047652;28;20679;-46
2020/12/24 11:35:22;;;;;;;1.55;1.17;;;4.00;99.90;;;;;;5048472;28;20221;-45
2020/12/24 11:37:47;;;;;;;1.30;1.10;;;4.10;99.90;;;;;;5048811;28;20021;-44
2020/12/24 11:40:13;;;;;;;2.63;1.33;;;4.10;99.90;;;;;;5048745;28;20021;-46
2020/12/24 11:42:39;;;;;;;1.83;1.70;;;4.10;99.90;;;;;;5035360;28;20032;-47
2020/12/24 11:45:05;;;;;;;1.10;1.10;;;4.20;99.90;;;;;;5039279;28;20025;-51
2020/12/24 11:47:34;;;;;;;1.60;1.50;;;4.20;99.90;;;;;;5048981;28;20025;-42
2020/12/24 11:50:00;;;;;;;1.58;1.48;;;4.20;99.90;;;;;;5048997;28;20027;-44
2020/12/24 11:52:25;;;;;;;1.70;1.60;;;4.20;99.90;;;;;;5038630;28;20025;-44
2020/12/24 11:54:51;;;;;;;4.15;1.77;;;4.30;99.90;;;;;;5029288;28;20034;-47
2020/12/24 11:57:17;;;;;;;1.40;1.30;;;4.30;99.90;;;;;;5036920;28;20025;-44
2020/12/24 11:59:43;;;;;;;1.33;1.08;;;4.30;99.90;;;;;;5038129;28;20667;-45
2020/12/24 12:02:08;;;;;;;1.63;1.52;;;4.30;99.90;;;;;;5036883;28;20021;-45
2020/12/24 12:04:35;;;;;;;1.73;1.60;;;4.30;99.90;;;;;;5035160;28;20094;-44
2020/12/24 12:07:01;;;;;;;5.90;2.08;;;4.40;99.90;;;;;;5036331;28;20434;-45
2020/12/24 12:09:27;;;;;;;1.98;1.83;;;4.40;99.90;;;;;;5037019;28;20406;-44
2020/12/24 12:11:52;;;;;;;3.40;2.33;;;4.40;99.90;;;;;;5037246;28;20033;-47
2020/12/24 12:14:18;;;;;;;2.88;2.22;;;4.40;99.90;;;;;;5047579;28;20033;-44
2020/12/24 12:16:43;;;;;;;3.78;3.15;;;4.50;99.90;;;;;;5048219;28;20032;-45
2020/12/24 12:19:10;;;;;;;2.78;2.53;;;4.60;99.90;;;;;;5048680;28;20582;-43
2020/12/24 12:21:36;;;;;;;3.03;2.63;;;4.50;99.90;;;;;;5047085;28;20456;-46
2020/12/24 12:24:02;;;;;;;5.05;3.03;;;4.60;99.90;;;;;;5046737;28;20071;-45
2020/12/24 12:26:28;;;;;;;3.80;3.42;;;4.50;99.90;;;;;;5046380;28;20029;-46
2020/12/24 12:28:54;;;;;;;2.95;2.60;;;4.60;99.90;;;;;;5048573;28;20021;-45
2020/12/24 12:31:22;;;;;;;4.38;2.90;;;4.60;99.90;;;;;;5048389;28;20032;-45
2020/12/24 12:33:48;;;;;;;4.05;3.47;;;4.70;99.90;;;;;;5047920;28;20449;-44
2020/12/24 12:36:14;;;;;;;3.72;3.30;;;4.70;99.90;;;;;;5050323;28;20381;-44
2020/12/24 12:38:43;;;;;;;4.07;3.20;;;4.70;99.90;;;;;;5052640;28;20100;-47
2020/12/24 12:41:10;;;;;;;4.03;2.83;;;4.80;99.90;;;;;;5051010;28;20017;-45
2020/12/24 12:43:35;;;;;;;5.97;3.50;;;4.80;99.90;;;;;;5032480;28;20035;-44
2020/12/24 12:46:01;;;;;;;5.03;3.33;;;4.90;99.90;;;;;;5031782;28;20108;-46
2020/12/24 12:48:27;;;;;;;3.13;2.83;;;4.90;99.90;;;;;;5032360;28;20041;-45
2020/12/24 12:50:53;;;;;;;3.10;2.78;;;4.90;99.90;;;;;;5030738;28;20025;-46
2020/12/24 12:53:19;;;;;;;4.68;3.10;;;5.00;99.90;;;;;;5031908;28;20383;-48
2020/12/24 12:55:44;;;;;;;2.88;2.65;;;5.10;99.90;;;;;;5040730;28;20379;-44